Time;durP1;ratioP1;P1;durP2;ratioP2;P2;SDS_P1;SDS_P2;PMS_P1;PMS_P2;Temp;Humidity;BMP_temperature;BMP_pressure;BME280_temperature;BME280_humidity;BME280_pressure;Samples;Min_cycle;Max_cycle;Signal;HPM_P1;HPM_P2
2023/03/04 00:00:13;;;;;;;1999.90;999.90;;;;;;;;;;5103470;28;20253;-75
2023/03/04 00:02:39;;;;;;;1999.90;999.90;;;;;;;;;;5101974;28;20035;-74
2023/03/04 00:05:06;;;;;;;1999.90;999.90;;;;;;;;;;5104407;28;20028;-77
2023/03/04 00:07:32;;;;;;;1999.90;999.90;;;;;;;;;;5105157;28;20327;-74
2023/03/04 00:09:58;;;;;;;1999.90;999.90;;;;;;;;;;5105072;28;20032;-75
2023/03/04 00:12:24;;;;;;;1999.90;999.90;;;;;;;;;;5108325;28;20026;-74
2023/03/04 00:14:52;;;;;;;1999.90;999.90;;;;;;;;;;5109237;28;20099;-74
2023/03/04 00:17:19;;;;;;;1999.90;999.90;;;;;;;;;;5104486;28;20028;-74
2023/03/04 00:19:44;;;;;;;1999.90;999.90;;;;;;;;;;5105312;28;20032;-74
2023/03/04 00:22:12;;;;;;;1999.90;999.90;;;;;;;;;;5105239;28;20172;-73
2023/03/04 00:24:38;;;;;;;1999.90;999.90;;;;;;;;;;5110336;28;20208;-74
2023/03/04 00:27:04;;;;;;;1999.90;999.90;;;;;;;;;;5105407;28;20016;-73
2023/03/04 00:29:30;;;;;;;1999.90;999.90;;;;;;;;;;5103952;28;20368;-73
2023/03/04 00:31:56;;;;;;;1999.90;999.90;;;;;;;;;;5106182;28;20034;-74
2023/03/04 00:34:22;;;;;;;1999.90;999.90;;;;;;;;;;5106342;28;20019;-74
2023/03/04 00:36:48;;;;;;;1999.90;999.90;;;;;;;;;;5104430;28;20020;-74
2023/03/04 00:39:15;;;;;;;1999.90;999.90;;;;;;;;;;5106137;28;20425;-74
2023/03/04 00:41:41;;;;;;;1999.90;999.90;;;;;;;;;;5104353;28;20035;-74
2023/03/04 00:44:07;;;;;;;1999.90;999.90;;;;;;;;;;5106400;28;20049;-74
2023/03/04 00:46:33;;;;;;;1999.90;999.90;;;;;;;;;;5106734;28;20335;-74
2023/03/04 00:48:59;;;;;;;1999.90;999.90;;;;;;;;;;5104743;28;20016;-74
2023/03/04 00:51:25;;;;;;;1999.90;999.90;;;;;;;;;;5106221;28;20020;-73
2023/03/04 00:53:51;;;;;;;1999.90;999.90;;;;;;;;;;5105466;28;20016;-75
2023/03/04 00:56:17;;;;;;;1999.90;999.90;;;;;;;;;;5102320;28;20027;-73
2023/03/04 00:58:43;;;;;;;1999.90;999.90;;;;;;;;;;5106001;28;20027;-74
2023/03/04 01:01:09;;;;;;;1999.90;999.90;;;;;;;;;;5102952;28;20283;-74
2023/03/04 01:03:35;;;;;;;1999.90;999.90;;;;;;;;;;5106300;28;20016;-74
2023/03/04 01:06:01;;;;;;;1999.90;999.90;;;;;;;;;;5104112;28;20108;-73
2023/03/04 01:08:28;;;;;;;1999.90;999.90;;;;;;;;;;5103365;28;20087;-74
2023/03/04 01:10:54;;;;;;;1999.90;999.90;;;;;;;;;;5103158;28;20437;-75
2023/03/04 01:13:20;;;;;;;1999.90;999.90;;;;;;;;;;5104421;28;20031;-74
2023/03/04 01:15:46;;;;;;;1999.90;999.90;;;;;;;;;;5100006;28;20110;-75
2023/03/04 01:18:12;;;;;;;1999.90;999.90;;;;;;;;;;5105944;28;20220;-75
2023/03/04 01:20:38;;;;;;;1999.90;999.90;;;;;;;;;;5105638;28;20036;-75
2023/03/04 01:23:04;;;;;;;1999.90;999.90;;;;;;;;;;5103702;28;20074;-73
2023/03/04 01:25:30;;;;;;;1999.90;999.90;;;;;;;;;;5104899;28;20023;-74
2023/03/04 01:27:56;;;;;;;1999.90;999.90;;;;;;;;;;5099173;28;20027;-73
2023/03/04 01:30:22;;;;;;;1999.90;999.90;;;;;;;;;;5102960;28;20336;-74
2023/03/04 01:32:48;;;;;;;1999.90;999.90;;;;;;;;;;5099635;28;20027;-74
2023/03/04 01:35:14;;;;;;;1999.90;999.90;;;;;;;;;;5100595;28;20208;-73
2023/03/04 01:37:39;;;;;;;1999.90;999.90;;;;;;;;;;5102323;28;20024;-74
2023/03/04 01:40:06;;;;;;;1999.90;999.90;;;;;;;;;;5102811;28;20039;-74
2023/03/04 01:42:33;;;;;;;1999.90;999.90;;;;;;;;;;5103267;28;20300;-73
2023/03/04 01:44:59;;;;;;;1999.90;999.90;;;;;;;;;;5104156;28;20197;-75
2023/03/04 01:47:28;;;;;;;1999.90;999.90;;;;;;;;;;5100405;28;20312;-73
2023/03/04 01:49:56;;;;;;;1999.90;999.90;;;;;;;;;;5101598;28;20028;-75
2023/03/04 01:52:23;;;;;;;1999.90;999.90;;;;;;;;;;5099653;28;20047;-75
2023/03/04 01:54:49;;;;;;;1999.90;999.90;;;;;;;;;;5102648;28;20330;-73
2023/03/04 01:57:19;;;;;;;1999.90;999.90;;;;;;;;;;5101981;28;20024;-75
2023/03/04 01:59:46;;;;;;;1999.90;999.90;;;;;;;;;;5101489;28;20032;-73
2023/03/04 02:02:12;;;;;;;1999.90;999.90;;;;;;;;;;5103815;28;20020;-73
2023/03/04 02:04:38;;;;;;;1999.90;999.90;;;;;;;;;;5102294;28;20023;-74
2023/03/04 02:07:05;;;;;;;1999.90;999.90;;;;;;;;;;5101903;28;20016;-74
2023/03/04 02:09:32;;;;;;;1999.90;999.90;;;;;;;;;;5103364;28;20355;-75
2023/03/04 02:11:58;;;;;;;1999.90;999.90;;;;;;;;;;5101258;28;20095;-72
2023/03/04 02:14:24;;;;;;;1999.90;999.90;;;;;;;;;;5099983;28;20015;-73
2023/03/04 02:16:51;;;;;;;1999.90;999.90;;;;;;;;;;5099970;28;20048;-75
2023/03/04 02:19:23;;;;;;;1999.90;999.90;;;;;;;;;;5103286;28;20035;-73
2023/03/04 02:21:51;;;;;;;1999.90;999.90;;;;;;;;;;5101955;28;20209;-74
2023/03/04 02:24:21;;;;;;;1999.90;999.90;;;;;;;;;;5101520;28;20020;-74
2023/03/04 02:26:48;;;;;;;1999.90;999.90;;;;;;;;;;5103574;28;20024;-75
2023/03/04 02:29:15;;;;;;;1999.90;999.90;;;;;;;;;;5101607;28;20024;-75
2023/03/04 02:31:45;;;;;;;1999.90;999.90;;;;;;;;;;5101935;28;20020;-73
2023/03/04 02:34:37;;;;;;;1999.90;999.90;;;;;;;;;;5100771;28;20102;-74
2023/03/04 02:37:03;;;;;;;1999.90;999.90;;;;;;;;;;5098591;28;20040;-76
2023/03/04 02:39:31;;;;;;;1999.90;999.90;;;;;;;;;;5099034;28;20043;-74
2023/03/04 02:41:58;;;;;;;1999.90;999.90;;;;;;;;;;5102002;28;20330;-77
2023/03/04 02:44:25;;;;;;;1999.90;999.90;;;;;;;;;;5099970;28;20051;-72
2023/03/04 02:46:52;;;;;;;1999.90;999.90;;;;;;;;;;5104306;28;20028;-76
2023/03/04 02:49:18;;;;;;;1999.90;999.90;;;;;;;;;;5100261;28;20039;-75
2023/03/04 02:51:44;;;;;;;1999.90;999.90;;;;;;;;;;5099358;28;20059;-74
2023/03/04 02:54:17;;;;;;;1999.90;999.90;;;;;;;;;;5102967;28;20219;-74
2023/03/04 02:56:48;;;;;;;1999.90;999.90;;;;;;;;;;5101082;28;20020;-72
2023/03/04 02:59:14;;;;;;;1999.90;999.90;;;;;;;;;;5103309;28;20034;-76
2023/03/04 03:01:40;;;;;;;1999.90;999.90;;;;;;;;;;5101502;28;20048;-73
2023/03/04 03:04:06;;;;;;;1999.90;999.90;;;;;;;;;;5101432;28;20079;-73
2023/03/04 03:06:32;;;;;;;1999.90;999.90;;;;;;;;;;5102100;28;20030;-73
2023/03/04 03:08:58;;;;;;;1999.90;999.90;;;;;;;;;;5103559;28;20024;-73
2023/03/04 03:11:24;;;;;;;1999.90;999.90;;;;;;;;;;5101968;28;20343;-74
2023/03/04 03:13:50;;;;;;;1999.90;999.90;;;;;;;;;;5103428;28;20279;-73
2023/03/04 03:16:16;;;;;;;1999.90;999.90;;;;;;;;;;5100289;28;20048;-72
2023/03/04 03:18:42;;;;;;;1999.90;999.90;;;;;;;;;;5103544;28;20031;-74
2023/03/04 03:21:08;;;;;;;1999.90;999.90;;;;;;;;;;5100163;28;20320;-73
2023/03/04 03:23:34;;;;;;;1999.90;999.90;;;;;;;;;;5102414;28;20058;-74
2023/03/04 03:26:00;;;;;;;1999.90;999.90;;;;;;;;;;5100728;28;20107;-74
2023/03/04 03:28:26;;;;;;;1999.90;999.90;;;;;;;;;;5099335;28;20091;-73
2023/03/04 03:30:52;;;;;;;1999.90;999.90;;;;;;;;;;5102479;28;20054;-74
2023/03/04 03:33:18;;;;;;;1999.90;999.90;;;;;;;;;;5100002;28;20024;-73
2023/03/04 03:35:44;;;;;;;1999.90;999.90;;;;;;;;;;5103387;28;20023;-73
2023/03/04 03:38:10;;;;;;;1999.90;999.90;;;;;;;;;;5102464;28;20023;-75
2023/03/04 03:40:36;;;;;;;1999.90;999.90;;;;;;;;;;5100377;28;20099;-73
2023/03/04 03:43:02;;;;;;;1999.90;999.90;;;;;;;;;;5102930;28;20016;-72
2023/03/04 03:45:28;;;;;;;1999.90;999.90;;;;;;;;;;5105204;28;20035;-72
2023/03/04 03:47:55;;;;;;;1999.90;999.90;;;;;;;;;;5107526;28;20020;-73
2023/03/04 03:50:21;;;;;;;1999.90;999.90;;;;;;;;;;5104115;28;20017;-74
2023/03/04 03:52:47;;;;;;;1999.90;999.90;;;;;;;;;;5106977;28;20019;-74
2023/03/04 03:55:13;;;;;;;1999.90;999.90;;;;;;;;;;5102125;28;20020;-73
2023/03/04 03:57:39;;;;;;;1999.90;999.90;;;;;;;;;;5106033;28;20083;-75
2023/03/04 04:00:05;;;;;;;1999.90;999.90;;;;;;;;;;5104087;28;20545;-74
2023/03/04 04:02:31;;;;;;;1999.90;999.90;;;;;;;;;;5107996;28;20017;-73
2023/03/04 04:04:57;;;;;;;1999.90;999.90;;;;;;;;;;5106465;28;20027;-75
2023/03/04 04:07:23;;;;;;;1999.90;999.90;;;;;;;;;;5106996;28;20433;-73
2023/03/04 04:09:49;;;;;;;1999.90;999.90;;;;;;;;;;5110858;28;20420;-74
2023/03/04 04:12:16;;;;;;;1999.90;999.90;;;;;;;;;;5109653;28;20165;-77
2023/03/04 04:14:42;;;;;;;1999.90;999.90;;;;;;;;;;5108513;28;20048;-73
2023/03/04 04:17:08;;;;;;;1999.90;999.90;;;;;;;;;;5108323;28;20077;-75
2023/03/04 04:19:34;;;;;;;1999.90;999.90;;;;;;;;;;5108255;28;20027;-74
2023/03/04 04:22:00;;;;;;;1999.90;999.90;;;;;;;;;;5106525;28;20183;-73
2023/03/04 04:24:26;;;;;;;1999.90;999.90;;;;;;;;;;5107715;28;20024;-74
2023/03/04 04:26:52;;;;;;;1999.90;999.90;;;;;;;;;;5102657;28;20042;-75
2023/03/04 04:29:18;;;;;;;1999.90;999.90;;;;;;;;;;5106322;28;20020;-77
2023/03/04 04:31:44;;;;;;;1999.90;999.90;;;;;;;;;;5106944;28;20031;-74
2023/03/04 04:34:10;;;;;;;1999.90;999.90;;;;;;;;;;5103210;28;20024;-73
2023/03/04 04:36:36;;;;;;;1999.90;999.90;;;;;;;;;;5105329;28;20028;-74
2023/03/04 04:39:03;;;;;;;1999.90;999.90;;;;;;;;;;5107895;28;20055;-73
2023/03/04 04:41:30;;;;;;;1999.90;999.90;;;;;;;;;;5106465;28;20031;-74
2023/03/04 04:43:57;;;;;;;1999.90;999.90;;;;;;;;;;5109887;28;20016;-75
2023/03/04 04:46:23;;;;;;;1999.90;999.90;;;;;;;;;;5105587;28;20028;-74
2023/03/04 04:48:49;;;;;;;1999.90;999.90;;;;;;;;;;5104737;28;20077;-74
2023/03/04 04:51:15;;;;;;;1999.90;999.90;;;;;;;;;;5109544;28;20020;-76
2023/03/04 04:53:41;;;;;;;1999.90;999.90;;;;;;;;;;5108271;28;20020;-74
2023/03/04 04:56:15;;;;;;;1999.90;999.90;;;;;;;;;;5106177;28;20016;-75
2023/03/04 04:58:42;;;;;;;1999.90;999.90;;;;;;;;;;5107116;28;20086;-75
2023/03/04 05:01:08;;;;;;;1999.90;999.90;;;;;;;;;;5106896;28;20032;-75
2023/03/04 05:03:35;;;;;;;1999.90;999.90;;;;;;;;;;5106731;28;20077;-75
2023/03/04 05:06:01;;;;;;;1999.90;999.90;;;;;;;;;;5104823;28;20047;-75
2023/03/04 05:08:28;;;;;;;1999.90;999.90;;;;;;;;;;5105422;28;20027;-74
2023/03/04 05:10:53;;;;;;;1999.90;999.90;;;;;;;;;;5103404;28;20027;-74
2023/03/04 05:13:20;;;;;;;1999.90;999.90;;;;;;;;;;5107208;28;20038;-75
2023/03/04 05:15:46;;;;;;;1999.90;999.90;;;;;;;;;;5102381;28;20047;-73
2023/03/04 05:18:12;;;;;;;1999.90;999.90;;;;;;;;;;5104905;28;20040;-74
2023/03/04 05:20:38;;;;;;;1999.90;999.90;;;;;;;;;;5104294;28;20086;-75
2023/03/04 05:23:04;;;;;;;1999.90;999.90;;;;;;;;;;5109492;28;20456;-74
2023/03/04 05:25:30;;;;;;;1999.90;999.90;;;;;;;;;;5109409;28;20028;-75
2023/03/04 05:27:56;;;;;;;1999.90;999.90;;;;;;;;;;5110327;28;20020;-74
2023/03/04 05:30:22;;;;;;;1999.90;999.90;;;;;;;;;;5105902;28;20494;-74
2023/03/04 05:32:48;;;;;;;1999.90;999.90;;;;;;;;;;5105604;28;20087;-74
2023/03/04 05:35:14;;;;;;;1999.90;999.90;;;;;;;;;;5107818;28;20060;-74
2023/03/04 05:37:40;;;;;;;1999.90;999.90;;;;;;;;;;5107608;28;20043;-74
2023/03/04 05:40:06;;;;;;;1999.90;999.90;;;;;;;;;;5106017;28;20107;-75
2023/03/04 05:42:32;;;;;;;1999.90;999.90;;;;;;;;;;5109602;28;20024;-75
2023/03/04 05:44:58;;;;;;;1999.90;999.90;;;;;;;;;;5108001;28;20052;-75
2023/03/04 05:47:24;;;;;;;1999.90;999.90;;;;;;;;;;5108292;28;20150;-74
2023/03/04 05:49:50;;;;;;;1999.90;999.90;;;;;;;;;;5109003;28;20042;-76
2023/03/04 05:52:16;;;;;;;1999.90;999.90;;;;;;;;;;5106058;28;20028;-73
2023/03/04 05:54:42;;;;;;;1999.90;999.90;;;;;;;;;;5109748;28;20061;-75
2023/03/04 05:57:08;;;;;;;1999.90;999.90;;;;;;;;;;5104651;28;20028;-74
2023/03/04 05:59:34;;;;;;;1999.90;999.90;;;;;;;;;;5102738;28;20038;-74
2023/03/04 06:02:00;;;;;;;1999.90;999.90;;;;;;;;;;5104647;28;20043;-74
2023/03/04 06:04:26;;;;;;;1999.90;999.90;;;;;;;;;;5106437;28;20032;-75
2023/03/04 06:06:52;;;;;;;1999.90;999.90;;;;;;;;;;5106573;28;20020;-74
2023/03/04 06:09:19;;;;;;;1999.90;999.90;;;;;;;;;;5106617;28;20024;-74
2023/03/04 06:11:45;;;;;;;1999.90;999.90;;;;;;;;;;5109685;28;20019;-74
2023/03/04 06:14:11;;;;;;;1999.90;999.90;;;;;;;;;;5105481;28;20020;-74
2023/03/04 06:16:37;;;;;;;1999.90;999.90;;;;;;;;;;5106015;28;20115;-75
2023/03/04 06:19:03;;;;;;;1999.90;999.90;;;;;;;;;;5101991;28;20031;-74
2023/03/04 06:21:29;;;;;;;1999.90;999.90;;;;;;;;;;5105301;28;20079;-74
2023/03/04 06:23:55;;;;;;;1999.90;999.90;;;;;;;;;;5105392;28;20331;-74
2023/03/04 06:26:21;;;;;;;1999.90;999.90;;;;;;;;;;5105373;28;20024;-75
2023/03/04 06:28:47;;;;;;;1999.90;999.90;;;;;;;;;;5103144;28;20032;-74
2023/03/04 06:31:13;;;;;;;1999.90;999.90;;;;;;;;;;5103200;28;20016;-76
2023/03/04 06:33:39;;;;;;;1999.90;999.90;;;;;;;;;;5103643;28;20028;-75
2023/03/04 06:36:06;;;;;;;1999.90;999.90;;;;;;;;;;5103801;28;20087;-76
2023/03/04 06:38:32;;;;;;;1999.90;999.90;;;;;;;;;;5100665;28;20092;-76
2023/03/04 06:41:05;;;;;;;1999.90;999.90;;;;;;;;;;5104460;28;20039;-75
2023/03/04 06:43:31;;;;;;;1999.90;999.90;;;;;;;;;;5103002;28;20024;-76
2023/03/04 06:45:57;;;;;;;1999.90;999.90;;;;;;;;;;5104778;28;20032;-75
2023/03/04 06:48:23;;;;;;;1999.90;999.90;;;;;;;;;;5103174;28;20178;-75
2023/03/04 06:50:52;;;;;;;1999.90;999.90;;;;;;;;;;5101112;28;20069;-75
2023/03/04 06:53:18;;;;;;;1999.90;999.90;;;;;;;;;;5101854;28;20043;-76
2023/03/04 06:55:46;;;;;;;1999.90;999.90;;;;;;;;;;5103476;28;20320;-75
2023/03/04 06:58:12;;;;;;;1999.90;999.90;;;;;;;;;;5098221;28;20020;-76
2023/03/04 07:00:38;;;;;;;1999.90;999.90;;;;;;;;;;5101582;28;20115;-74
2023/03/04 07:03:04;;;;;;;1999.90;999.90;;;;;;;;;;5101037;28;20020;-76
2023/03/04 07:05:30;;;;;;;1999.90;999.90;;;;;;;;;;5099448;28;20031;-76
2023/03/04 07:07:56;;;;;;;1999.90;999.90;;;;;;;;;;5099877;28;20091;-75
2023/03/04 07:10:25;;;;;;;1999.90;999.90;;;;;;;;;;5101274;28;20330;-77
2023/03/04 07:12:51;;;;;;;1999.90;999.90;;;;;;;;;;5103405;28;20012;-76
2023/03/04 07:15:17;;;;;;;1999.90;999.90;;;;;;;;;;5102716;28;20048;-76
2023/03/04 07:17:43;;;;;;;1999.90;999.90;;;;;;;;;;5099685;28;20328;-76
2023/03/04 07:20:10;;;;;;;1999.90;999.90;;;;;;;;;;5100460;28;20035;-75
2023/03/04 07:22:36;;;;;;;1999.90;999.90;;;;;;;;;;5103334;28;20027;-75
2023/03/04 07:25:02;;;;;;;1999.90;999.90;;;;;;;;;;5103656;28;20024;-76
2023/03/04 07:27:28;;;;;;;1999.90;999.90;;;;;;;;;;5103591;28;20197;-77
2023/03/04 07:29:54;;;;;;;1999.90;999.90;;;;;;;;;;5102621;28;20243;-75
2023/03/04 07:32:20;;;;;;;1999.90;999.90;;;;;;;;;;5100794;28;20047;-76
2023/03/04 07:34:46;;;;;;;1999.90;999.90;;;;;;;;;;5101131;28;20096;-76
2023/03/04 07:37:12;;;;;;;1999.90;999.90;;;;;;;;;;5101915;28;20264;-77
2023/03/04 07:39:38;;;;;;;1999.90;999.90;;;;;;;;;;5102503;28;20043;-77
2023/03/04 07:42:04;;;;;;;1999.90;999.90;;;;;;;;;;5100788;28;20039;-77
2023/03/04 07:44:30;;;;;;;1999.90;999.90;;;;;;;;;;5099460;28;20024;-75
2023/03/04 07:46:56;;;;;;;1999.90;999.90;;;;;;;;;;5101429;28;20020;-75
2023/03/04 07:49:22;;;;;;;1999.90;999.90;;;;;;;;;;5099524;28;20017;-75
2023/03/04 07:51:48;;;;;;;1999.90;999.90;;;;;;;;;;5100603;28;20027;-74
2023/03/04 07:54:14;;;;;;;1999.90;999.90;;;;;;;;;;5100160;28;20027;-74
2023/03/04 07:56:40;;;;;;;1999.90;999.90;;;;;;;;;;5098773;28;20024;-75
2023/03/04 07:59:06;;;;;;;1999.90;999.90;;;;;;;;;;5103605;28;20016;-74
2023/03/04 08:01:33;;;;;;;1999.90;999.90;;;;;;;;;;5103033;28;20205;-75
2023/03/04 08:03:59;;;;;;;1999.90;999.90;;;;;;;;;;5103433;28;20012;-74
2023/03/04 08:06:25;;;;;;;1999.90;999.90;;;;;;;;;;5101817;28;20028;-75
2023/03/04 08:08:56;;;;;;;1999.90;999.90;;;;;;;;;;5101143;28;20043;-74
2023/03/04 08:11:22;;;;;;;1999.90;999.90;;;;;;;;;;5100086;28;20061;-75
2023/03/04 08:13:48;;;;;;;1999.90;999.90;;;;;;;;;;5101782;28;20028;-74
2023/03/04 08:16:18;;;;;;;1999.90;999.90;;;;;;;;;;5101614;28;20047;-74
2023/03/04 08:18:46;;;;;;;1999.90;999.90;;;;;;;;;;5101103;28;20099;-75
2023/03/04 08:21:13;;;;;;;1999.90;999.90;;;;;;;;;;5101160;28;20059;-75
2023/03/04 08:23:41;;;;;;;1999.90;999.90;;;;;;;;;;5103724;28;20026;-74
2023/03/04 08:26:09;;;;;;;1999.90;999.90;;;;;;;;;;5102900;28;20035;-74
2023/03/04 08:28:35;;;;;;;1999.90;999.90;;;;;;;;;;5103873;28;20012;-76
2023/03/04 08:31:01;;;;;;;1999.90;999.90;;;;;;;;;;5107112;28;20024;-74
2023/03/04 08:33:27;;;;;;;1999.90;999.90;;;;;;;;;;5107479;28;20028;-74
2023/03/04 08:35:53;;;;;;;1999.90;999.90;;;;;;;;;;5107974;28;20054;-74
2023/03/04 08:38:19;;;;;;;1999.90;999.90;;;;;;;;;;5108023;28;20027;-74
2023/03/04 08:40:45;;;;;;;1999.90;999.90;;;;;;;;;;5107413;28;20032;-75
2023/03/04 08:43:11;;;;;;;1999.90;999.90;;;;;;;;;;5107267;28;20012;-76
2023/03/04 08:45:37;;;;;;;1999.90;999.90;;;;;;;;;;5107995;28;20060;-74
2023/03/04 08:48:03;;;;;;;1999.90;999.90;;;;;;;;;;5110562;28;20020;-75
2023/03/04 08:50:29;;;;;;;1999.90;999.90;;;;;;;;;;5107811;28;20032;-75
2023/03/04 08:52:55;;;;;;;1999.90;999.90;;;;;;;;;;5105755;28;20035;-76
2023/03/04 08:55:21;;;;;;;1999.90;999.90;;;;;;;;;;5106637;28;20035;-74
2023/03/04 08:57:47;;;;;;;1999.90;999.90;;;;;;;;;;5107095;28;20204;-75
2023/03/04 09:00:13;;;;;;;1999.90;999.90;;;;;;;;;;5102984;28;20046;-74
2023/03/04 09:02:39;;;;;;;1999.90;999.90;;;;;;;;;;5104153;28;20053;-74
2023/03/04 09:05:06;;;;;;;1999.90;999.90;;;;;;;;;;5104149;28;20043;-75
2023/03/04 09:07:32;;;;;;;1999.90;999.90;;;;;;;;;;5104585;28;20046;-74
2023/03/04 09:09:58;;;;;;;1999.90;999.90;;;;;;;;;;5106063;28;20019;-75
2023/03/04 09:12:24;;;;;;;1999.90;999.90;;;;;;;;;;5101303;28;20024;-75
2023/03/04 09:14:50;;;;;;;1999.90;999.90;;;;;;;;;;5102890;28;20024;-74
2023/03/04 09:17:16;;;;;;;1999.90;999.90;;;;;;;;;;5104315;28;20087;-74
2023/03/04 09:19:42;;;;;;;1999.90;999.90;;;;;;;;;;5101376;28;20039;-74
2023/03/04 09:22:08;;;;;;;1999.90;999.90;;;;;;;;;;5102937;28;20027;-74
2023/03/04 09:24:34;;;;;;;1999.90;999.90;;;;;;;;;;5109212;28;20031;-75
2023/03/04 09:27:00;;;;;;;1999.90;999.90;;;;;;;;;;5103810;28;20078;-76
2023/03/04 09:29:26;;;;;;;1999.90;999.90;;;;;;;;;;5104315;28;20020;-75
2023/03/04 09:31:52;;;;;;;1999.90;999.90;;;;;;;;;;5104946;28;20047;-76
2023/03/04 09:34:18;;;;;;;1999.90;999.90;;;;;;;;;;5103157;28;20020;-75
2023/03/04 09:36:44;;;;;;;1999.90;999.90;;;;;;;;;;5105981;28;20024;-75
2023/03/04 09:39:10;;;;;;;1999.90;999.90;;;;;;;;;;5102704;28;20038;-75
2023/03/04 09:41:38;;;;;;;1999.90;999.90;;;;;;;;;;5103702;28;20058;-77
2023/03/04 09:44:13;;;;;;;1999.90;999.90;;;;;;;;;;5108976;28;20020;-74
2023/03/04 09:46:40;;;;;;;1999.90;999.90;;;;;;;;;;5101597;28;20043;-75
2023/03/04 09:49:06;;;;;;;1999.90;999.90;;;;;;;;;;5103566;28;20016;-74
2023/03/04 09:51:36;;;;;;;1999.90;999.90;;;;;;;;;;5106116;28;20024;-74
2023/03/04 09:54:02;;;;;;;1999.90;999.90;;;;;;;;;;5104932;28;20023;-74
2023/03/04 09:56:28;;;;;;;1999.90;999.90;;;;;;;;;;5099815;28;20024;-75
2023/03/04 09:59:13;;;;;;;1999.90;999.90;;;;;;;;;;5105077;28;20065;-75
2023/03/04 10:01:42;;;;;;;1999.90;999.90;;;;;;;;;;5105421;28;20165;-74
2023/03/04 10:04:25;;;;;;;1999.90;999.90;;;;;;;;;;5104311;28;20016;-75
2023/03/04 10:06:53;;;;;;;1999.90;999.90;;;;;;;;;;5103405;28;20258;-75
2023/03/04 10:09:29;;;;;;;1999.90;999.90;;;;;;;;;;5105195;28;20107;-74
2023/03/04 10:12:01;;;;;;;1999.90;999.90;;;;;;;;;;5103065;28;20031;-75
2023/03/04 10:14:37;;;;;;;1999.90;999.90;;;;;;;;;;5104254;28;20027;-74
2023/03/04 10:17:03;;;;;;;1999.90;999.90;;;;;;;;;;5101329;28;20032;-74
2023/03/04 10:19:43;;;;;;;1999.90;999.90;;;;;;;;;;5102323;28;20031;-75
2023/03/04 10:22:35;;;;;;;1999.90;999.90;;;;;;;;;;5105740;28;20022;-74
2023/03/04 10:25:14;;;;;;;1999.90;999.90;;;;;;;;;;5100914;28;20287;-74
2023/03/04 10:27:41;;;;;;;1999.90;999.90;;;;;;;;;;5103480;28;20031;-75
2023/03/04 10:30:18;;;;;;;1999.90;999.90;;;;;;;;;;5102394;28;20304;-76
2023/03/04 10:32:46;;;;;;;1999.90;999.90;;;;;;;;;;5099771;28;20028;-75
2023/03/04 10:35:12;;;;;;;1999.90;999.90;;;;;;;;;;5105879;28;20027;-75
2023/03/04 10:37:49;;;;;;;1999.90;999.90;;;;;;;;;;5099415;28;20103;-75
2023/03/04 10:40:37;;;;;;;1999.90;999.90;;;;;;;;;;5103137;28;20040;-75
2023/03/04 10:43:07;;;;;;;1999.90;999.90;;;;;;;;;;5101498;28;20419;-75
2023/03/04 10:45:37;;;;;;;1999.90;999.90;;;;;;;;;;5101165;28;20284;-75
2023/03/04 10:48:03;;;;;;;1999.90;999.90;;;;;;;;;;5100452;28;20085;-75
2023/03/04 10:50:30;;;;;;;1999.90;999.90;;;;;;;;;;5103156;28;20028;-75
2023/03/04 10:52:56;;;;;;;1999.90;999.90;;;;;;;;;;5101124;28;20016;-75
2023/03/04 10:55:28;;;;;;;1999.90;999.90;;;;;;;;;;5103832;28;20273;-75
2023/03/04 10:57:55;;;;;;;1999.90;999.90;;;;;;;;;;5100083;28;20069;-74
2023/03/04 11:00:26;;;;;;;1999.90;999.90;;;;;;;;;;5104693;28;20093;-74
2023/03/04 11:02:52;;;;;;;1999.90;999.90;;;;;;;;;;5104030;28;20057;-74
2023/03/04 11:05:22;;;;;;;1999.90;999.90;;;;;;;;;;5105071;28;20027;-74
2023/03/04 11:07:48;;;;;;;1999.90;999.90;;;;;;;;;;5102216;28;20028;-75
2023/03/04 11:10:14;;;;;;;1999.90;999.90;;;;;;;;;;5101371;28;20422;-75
2023/03/04 11:12:40;;;;;;;1999.90;999.90;;;;;;;;;;5104366;28;20019;-75
2023/03/04 11:15:23;;;;;;;1999.90;999.90;;;;;;;;;;5101258;28;20107;-74
2023/03/04 11:17:51;;;;;;;1999.90;999.90;;;;;;;;;;5101295;28;20032;-75
2023/03/04 11:20:36;;;;;;;1999.90;999.90;;;;;;;;;;5101702;28;20044;-75
2023/03/04 11:23:09;;;;;;;1999.90;999.90;;;;;;;;;;5102186;28;20341;-74
2023/03/04 11:25:37;;;;;;;1999.90;999.90;;;;;;;;;;5100120;28;20024;-75
2023/03/04 11:28:23;;;;;;;1999.90;999.90;;;;;;;;;;5099530;28;20035;-74
2023/03/04 11:30:52;;;;;;;1999.90;999.90;;;;;;;;;;5102903;28;20296;-75
2023/03/04 11:33:33;;;;;;;1999.90;999.90;;;;;;;;;;5102888;28;20062;-74
2023/03/04 11:36:06;;;;;;;1999.90;999.90;;;;;;;;;;5103798;28;20016;-75
2023/03/04 11:38:35;;;;;;;1999.90;999.90;;;;;;;;;;5100038;28;20035;-74
2023/03/04 11:41:05;;;;;;;1999.90;999.90;;;;;;;;;;5103508;28;20055;-75
2023/03/04 11:43:38;;;;;;;1999.90;999.90;;;;;;;;;;5100423;28;20028;-75
2023/03/04 11:46:24;;;;;;;1999.90;999.90;;;;;;;;;;5101304;28;20083;-74
2023/03/04 11:49:00;;;;;;;1999.90;999.90;;;;;;;;;;5102437;28;20091;-74
2023/03/04 11:51:45;;;;;;;1999.90;999.90;;;;;;;;;;5102558;28;20043;-74
2023/03/04 11:54:11;;;;;;;1999.90;999.90;;;;;;;;;;5101916;28;20020;-75
2023/03/04 11:56:44;;;;;;;1999.90;999.90;;;;;;;;;;5100507;28;20047;-74
2023/03/04 11:59:13;;;;;;;1999.90;999.90;;;;;;;;;;5103435;28;20058;-75
2023/03/04 12:01:57;;;;;;;1999.90;999.90;;;;;;;;;;5099949;28;20125;-75
2023/03/04 12:04:27;;;;;;;1999.90;999.90;;;;;;;;;;5101456;28;20023;-75
2023/03/04 12:06:59;;;;;;;1999.90;999.90;;;;;;;;;;5106440;28;20020;-76
2023/03/04 12:09:41;;;;;;;1999.90;999.90;;;;;;;;;;5106346;28;20069;-75
2023/03/04 12:12:07;;;;;;;1999.90;999.90;;;;;;;;;;5107597;28;20016;-74
2023/03/04 12:14:37;;;;;;;1999.90;999.90;;;;;;;;;;5105513;28;20083;-76
2023/03/04 12:17:06;;;;;;;1999.90;999.90;;;;;;;;;;5106877;28;20130;-75
2023/03/04 12:19:38;;;;;;;1999.90;999.90;;;;;;;;;;5103634;28;20028;-75
2023/03/04 12:22:23;;;;;;;1999.90;999.90;;;;;;;;;;5104981;28;20085;-75
2023/03/04 12:25:02;;;;;;;1999.90;999.90;;;;;;;;;;5104056;28;20016;-76
2023/03/04 12:27:38;;;;;;;1999.90;999.90;;;;;;;;;;5104037;28;20035;-76
2023/03/04 12:30:13;;;;;;;1999.90;999.90;;;;;;;;;;5101215;28;20031;-75
2023/03/04 12:33:03;;;;;;;1999.90;999.90;;;;;;;;;;5104492;28;20208;-76
2023/03/04 12:35:37;;;;;;;1999.90;999.90;;;;;;;;;;5101321;28;20045;-75
2023/03/04 12:38:22;;;;;;;262.80;240.63;;;;;;;;;;5106447;28;20020;-75
2023/03/04 12:40:57;;;;;;;24.42;11.50;;;;;;;;;;5103665;28;20379;-76
2023/03/04 12:43:30;;;;;;;24.38;12.68;;;;;;;;;;5104297;28;20054;-75
2023/03/04 12:46:08;;;;;;;26.27;13.27;;;;;;;;;;5102333;28;20020;-75
2023/03/04 12:48:36;;;;;;;32.55;14.07;;;;;;;;;;5106118;28;20024;-76
2023/03/04 12:51:26;;;;;;;22.63;10.57;;;;;;;;;;5103726;28;20116;-76
2023/03/04 12:54:12;;;;;;;26.17;13.70;;;;;;;;;;5078436;28;20069;-75
2023/03/04 12:57:04;;;;;;;25.35;11.90;;;;;;;;;;5090749;28;20065;-75
2023/03/04 12:59:35;;;;;;;24.98;11.88;;;;;;;;;;5073759;28;20103;-75
2023/03/04 13:02:20;;;;;;;28.30;12.35;;;;;;;;;;5103452;28;20021;-75
2023/03/04 13:04:58;;;;;;;26.70;11.00;;;;;;;;;;5101897;28;20031;-75
2023/03/04 13:07:41;;;;;;;25.38;10.50;;;;;;;;;;5104788;28;20020;-77
2023/03/04 13:10:12;;;;;;;26.25;11.90;;;;;;;;;;5103212;28;20027;-75
2023/03/04 13:13:00;;;;;;;23.52;11.57;;;;;;;;;;5103637;28;20061;-77
2023/03/04 13:15:35;;;;;;;26.40;12.48;;;;;;;;;;5103396;28;20122;-75
2023/03/04 13:18:02;;;;;;;24.92;11.48;;;;;;;;;;5102196;28;20095;-75
2023/03/04 13:20:37;;;;;;;25.70;11.40;;;;;;;;;;5102401;28;20032;-75
2023/03/04 13:23:05;;;;;;;29.45;12.43;;;;;;;;;;5103459;28;20095;-76
2023/03/04 13:25:33;;;;;;;25.80;12.57;;;;;;;;;;5101243;28;20035;-75
2023/03/04 13:28:01;;;;;;;21.10;10.60;;;;;;;;;;5104455;28;20016;-75
2023/03/04 13:30:30;;;;;;;25.38;11.15;;;;;;;;;;5101825;28;20028;-76
2023/03/04 13:32:57;;;;;;;24.23;11.48;;;;;;;;;;5102573;28;20024;-75
2023/03/04 13:35:42;;;;;;;31.23;11.52;;;;;;;;;;5102644;28;20090;-75
2023/03/04 13:38:26;;;;;;;32.78;12.70;;;;;;;;;;5101463;28;20023;-75
2023/03/04 13:41:12;;;;;;;27.50;11.85;;;;;;;;;;5103225;28;20031;-75
2023/03/04 13:43:55;;;;;;;23.40;11.45;;;;;;;;;;5102184;28;20090;-76
2023/03/04 13:46:22;;;;;;;30.08;11.50;;;;;;;;;;5101565;28;20300;-75
2023/03/04 13:48:51;;;;;;;32.15;12.10;;;;;;;;;;5099635;28;20435;-76
2023/03/04 13:51:26;;;;;;;22.27;10.60;;;;;;;;;;5103117;28;20035;-75